sensor_id;sensor_type;location;lat;lon;timestamp;pressure;altitude;pressure_sealevel;temperature;humidity
52535;BME280;38443;53.164;5.802;2023-02-21T00:00:04;101905.44;;;7.67;100.00
52535;BME280;38443;53.164;5.802;2023-02-21T00:02:47;101901.88;;;7.67;100.00
52535;BME280;38443;53.164;5.802;2023-02-21T00:05:31;101906.34;;;7.66;100.00
52535;BME280;38443;53.164;5.802;2023-02-21T00:08:15;101901.03;;;7.68;100.00
52535;BME280;38443;53.164;5.802;2023-02-21T00:10:59;101907.22;;;7.70;100.00
52535;BME280;38443;53.164;5.802;2023-02-21T00:13:43;101906.31;;;7.71;100.00
52535;BME280;38443;53.164;5.802;2023-02-21T00:16:27;101903.66;;;7.71;100.00
52535;BME280;38443;53.164;5.802;2023-02-21T00:19:11;101913.44;;;7.72;100.00
52535;BME280;38443;53.164;5.802;2023-02-21T00:21:55;101912.53;;;7.71;100.00
52535;BME280;38443;53.164;5.802;2023-02-21T00:24:39;101904.56;;;7.73;100.00
52535;BME280;38443;53.164;5.802;2023-02-21T00:27:24;101902.78;;;7.72;100.00
52535;BME280;38443;53.164;5.802;2023-02-21T00:30:10;101905.44;;;7.70;100.00
52535;BME280;38443;53.164;5.802;2023-02-21T00:32:54;101899.25;;;7.70;100.00
52535;BME280;38443;53.164;5.802;2023-02-21T00:35:38;101914.31;;;7.71;100.00
52535;BME280;38443;53.164;5.802;2023-02-21T00:38:22;101896.56;;;7.68;100.00
52535;BME280;38443;53.164;5.802;2023-02-21T00:41:06;101906.34;;;7.68;100.00
52535;BME280;38443;53.164;5.802;2023-02-21T00:43:50;101922.31;;;7.69;100.00
52535;BME280;38443;53.164;5.802;2023-02-21T00:46:34;101912.56;;;7.68;100.00
52535;BME280;38443;53.164;5.802;2023-02-21T00:49:18;101917.00;;;7.68;100.00
52535;BME280;38443;53.164;5.802;2023-02-21T00:52:02;101912.56;;;7.68;100.00
52535;BME280;38443;53.164;5.802;2023-02-21T00:54:47;101915.22;;;7.68;100.00
52535;BME280;38443;53.164;5.802;2023-02-21T00:57:31;101909.00;;;7.68;100.00
52535;BME280;38443;53.164;5.802;2023-02-21T01:00:18;101912.56;;;7.68;100.00
52535;BME280;38443;53.164;5.802;2023-02-21T01:03:03;101913.44;;;7.69;100.00
52535;BME280;38443;53.164;5.802;2023-02-21T01:05:47;101907.22;;;7.68;100.00
52535;BME280;38443;53.164;5.802;2023-02-21T01:08:31;101904.56;;;7.67;100.00
52535;BME280;38443;53.164;5.802;2023-02-21T01:11:20;101897.47;;;7.64;100.00
52535;BME280;38443;53.164;5.802;2023-02-21T01:14:05;101893.00;;;7.63;100.00
52535;BME280;38443;53.164;5.802;2023-02-21T01:16:49;101891.25;;;7.62;100.00
52535;BME280;38443;53.164;5.802;2023-02-21T01:19:33;101894.78;;;7.61;100.00
52535;BME280;38443;53.164;5.802;2023-02-21T01:22:17;101891.22;;;7.59;100.00
52535;BME280;38443;53.164;5.802;2023-02-21T01:25:01;101898.34;;;7.58;100.00
52535;BME280;38443;53.164;5.802;2023-02-21T01:27:45;101890.34;;;7.58;100.00
52535;BME280;38443;53.164;5.802;2023-02-21T01:30:29;101894.81;;;7.58;100.00
52535;BME280;38443;53.164;5.802;2023-02-21T01:33:13;101890.34;;;7.57;100.00
52535;BME280;38443;53.164;5.802;2023-02-21T01:35:57;101887.66;;;7.55;100.00
52535;BME280;38443;53.164;5.802;2023-02-21T01:38:41;101887.69;;;7.52;100.00
52535;BME280;38443;53.164;5.802;2023-02-21T01:41:25;101892.09;;;7.53;100.00
52535;BME280;38443;53.164;5.802;2023-02-21T01:44:33;101894.78;;;7.50;100.00
52535;BME280;38443;53.164;5.802;2023-02-21T01:47:17;101900.13;;;7.49;100.00
52535;BME280;38443;53.164;5.802;2023-02-21T01:50:06;101899.22;;;7.47;100.00
52535;BME280;38443;53.164;5.802;2023-02-21T01:52:52;101892.13;;;7.44;100.00
52535;BME280;38443;53.164;5.802;2023-02-21T01:55:38;101905.44;;;7.43;100.00
52535;BME280;38443;53.164;5.802;2023-02-21T01:58:24;101900.09;;;7.41;100.00
52535;BME280;38443;53.164;5.802;2023-02-21T02:01:15;101896.53;;;7.37;100.00
52535;BME280;38443;53.164;5.802;2023-02-21T02:04:01;101903.66;;;7.37;100.00
52535;BME280;38443;53.164;5.802;2023-02-21T02:06:46;101909.00;;;7.34;100.00
52535;BME280;38443;53.164;5.802;2023-02-21T02:09:30;101908.97;;;7.35;100.00
52535;BME280;38443;53.164;5.802;2023-02-21T02:12:56;101895.66;;;7.32;100.00
52535;BME280;38443;53.164;5.802;2023-02-21T02:23:45;101906.31;;;7.29;100.00
52535;BME280;38443;53.164;5.802;2023-02-21T02:40:10;101876.13;;;7.27;100.00
52535;BME280;38443;53.164;5.802;2023-02-21T02:42:53;101881.47;;;7.30;100.00
52535;BME280;38443;53.164;5.802;2023-02-21T02:45:35;101884.13;;;7.32;100.00
52535;BME280;38443;53.164;5.802;2023-02-21T02:48:19;101889.44;;;7.33;100.00
52535;BME280;38443;53.164;5.802;2023-02-21T02:50:47;101888.56;;;7.33;100.00
52535;BME280;38443;53.164;5.802;2023-02-21T02:53:18;101888.53;;;7.31;100.00
52535;BME280;38443;53.164;5.802;2023-02-21T02:58:14;101882.34;;;7.29;100.00
52535;BME280;38443;53.164;5.802;2023-02-21T03:00:44;101885.00;;;7.31;100.00
52535;BME280;38443;53.164;5.802;2023-02-21T03:03:28;101884.13;;;7.30;100.00
52535;BME280;38443;53.164;5.802;2023-02-21T03:11:17;101890.34;;;7.28;100.00
52535;BME280;38443;53.164;5.802;2023-02-21T03:13:46;101886.78;;;7.26;100.00
52535;BME280;38443;53.164;5.802;2023-02-21T03:16:26;101892.97;;;7.23;100.00
52535;BME280;38443;53.164;5.802;2023-02-21T03:21:25;101902.72;;;7.15;100.00
52535;BME280;38443;53.164;5.802;2023-02-21T03:23:56;101905.41;;;7.12;100.00
52535;BME280;38443;53.164;5.802;2023-02-21T03:26:23;101910.72;;;7.12;100.00
52535;BME280;38443;53.164;5.802;2023-02-21T03:28:49;101905.38;;;7.09;100.00
52535;BME280;38443;53.164;5.802;2023-02-21T03:31:15;101905.38;;;7.07;100.00
52535;BME280;38443;53.164;5.802;2023-02-21T03:33:42;101910.69;;;7.07;100.00
52535;BME280;38443;53.164;5.802;2023-02-21T03:36:08;101914.28;;;7.08;100.00
52535;BME280;38443;53.164;5.802;2023-02-21T03:38:34;101924.91;;;7.08;100.00
52535;BME280;38443;53.164;5.802;2023-02-21T03:40:59;101920.44;;;7.05;100.00
52535;BME280;38443;53.164;5.802;2023-02-21T03:43:24;101919.56;;;7.05;100.00
52535;BME280;38443;53.164;5.802;2023-02-21T03:45:49;101925.78;;;7.04;100.00
52535;BME280;38443;53.164;5.802;2023-02-21T03:48:15;101924.88;;;7.03;100.00
52535;BME280;38443;53.164;5.802;2023-02-21T03:50:40;101925.75;;;6.99;100.00
52535;BME280;38443;53.164;5.802;2023-02-21T03:53:05;101931.09;;;6.99;100.00
52535;BME280;38443;53.164;5.802;2023-02-21T03:55:31;101936.41;;;6.97;100.00
52535;BME280;38443;53.164;5.802;2023-02-21T03:57:56;101939.97;;;6.96;100.00
52535;BME280;38443;53.164;5.802;2023-02-21T04:00:21;101939.97;;;6.96;100.00
52535;BME280;38443;53.164;5.802;2023-02-21T04:02:47;101935.50;;;6.95;100.00
52535;BME280;38443;53.164;5.802;2023-02-21T04:05:12;101940.81;;;6.95;100.00
52535;BME280;38443;53.164;5.802;2023-02-21T04:07:38;101949.72;;;6.96;100.00
52535;BME280;38443;53.164;5.802;2023-02-21T04:10:03;101951.47;;;6.95;100.00
52535;BME280;38443;53.164;5.802;2023-02-21T04:12:28;101944.38;;;6.94;100.00
52535;BME280;38443;53.164;5.802;2023-02-21T04:14:54;101938.19;;;6.92;100.00
52535;BME280;38443;53.164;5.802;2023-02-21T04:17:21;101947.06;;;6.94;100.00
52535;BME280;38443;53.164;5.802;2023-02-21T04:19:46;101946.16;;;6.94;100.00
52535;BME280;38443;53.164;5.802;2023-02-21T04:22:12;101947.91;;;6.93;100.00
52535;BME280;38443;53.164;5.802;2023-02-21T04:24:37;101943.50;;;6.92;100.00
52535;BME280;38443;53.164;5.802;2023-02-21T04:27:02;101944.38;;;6.91;100.00
52535;BME280;38443;53.164;5.802;2023-02-21T04:29:28;101956.78;;;6.89;100.00
52535;BME280;38443;53.164;5.802;2023-02-21T04:31:53;101962.13;;;6.88;100.00
52535;BME280;38443;53.164;5.802;2023-02-21T04:34:20;101954.13;;;6.86;100.00
52535;BME280;38443;53.164;5.802;2023-02-21T04:36:45;101953.22;;;6.84;100.00
52535;BME280;38443;53.164;5.802;2023-02-21T04:39:10;101951.44;;;6.83;100.00
52535;BME280;38443;53.164;5.802;2023-02-21T04:41:36;101950.56;;;6.84;100.00
52535;BME280;38443;53.164;5.802;2023-02-21T04:44:01;101939.91;;;6.83;100.00
52535;BME280;38443;53.164;5.802;2023-02-21T04:46:27;101952.34;;;6.84;100.00
52535;BME280;38443;53.164;5.802;2023-02-21T04:48:52;101961.22;;;6.86;100.00
52535;BME280;38443;53.164;5.802;2023-02-21T04:51:20;101955.00;;;6.85;100.00
52535;BME280;38443;53.164;5.802;2023-02-21T04:53:47;101957.66;;;6.85;100.00
52535;BME280;38443;53.164;5.802;2023-02-21T04:56:13;101945.25;;;6.86;100.00
52535;BME280;38443;53.164;5.802;2023-02-21T04:58:40;101951.47;;;6.86;100.00
52535;BME280;38443;53.164;5.802;2023-02-21T05:01:06;101947.91;;;6.87;100.00
52535;BME280;38443;53.164;5.802;2023-02-21T05:03:31;101945.25;;;6.87;100.00
52535;BME280;38443;53.164;5.802;2023-02-21T05:05:56;101947.03;;;6.88;100.00
52535;BME280;38443;53.164;5.802;2023-02-21T05:08:22;101944.34;;;6.87;100.00
52535;BME280;38443;53.164;5.802;2023-02-21T05:10:48;101954.13;;;6.89;100.00
52535;BME280;38443;53.164;5.802;2023-02-21T05:13:13;101949.72;;;6.90;100.00
52535;BME280;38443;53.164;5.802;2023-02-21T05:15:39;101945.25;;;6.90;100.00
52535;BME280;38443;53.164;5.802;2023-02-21T05:18:04;101947.03;;;6.88;100.00
52535;BME280;38443;53.164;5.802;2023-02-21T05:20:30;101942.59;;;6.89;100.00
52535;BME280;38443;53.164;5.802;2023-02-21T05:22:55;101949.66;;;6.85;100.00
52535;BME280;38443;53.164;5.802;2023-02-21T05:25:22;101947.03;;;6.84;100.00
52535;BME280;38443;53.164;5.802;2023-02-21T05:27:48;101944.34;;;6.81;100.00
52535;BME280;38443;53.164;5.802;2023-02-21T05:30:17;101947.91;;;6.79;100.00
52535;BME280;38443;53.164;5.802;2023-02-21T05:32:43;101946.09;;;6.78;100.00
52535;BME280;38443;53.164;5.802;2023-02-21T05:35:08;101951.41;;;6.77;100.00
52535;BME280;38443;53.164;5.802;2023-02-21T05:37:34;101946.09;;;6.77;100.00
52535;BME280;38443;53.164;5.802;2023-02-21T05:39:59;101946.09;;;6.77;100.00
52535;BME280;38443;53.164;5.802;2023-02-21T05:42:25;101946.97;;;6.77;100.00
52535;BME280;38443;53.164;5.802;2023-02-21T05:44:50;101944.31;;;6.77;100.00
52535;BME280;38443;53.164;5.802;2023-02-21T05:47:16;101942.56;;;6.78;100.00
52535;BME280;38443;53.164;5.802;2023-02-21T05:49:41;101943.44;;;6.78;100.00
52535;BME280;38443;53.164;5.802;2023-02-21T05:52:10;101947.91;;;6.79;100.00
52535;BME280;38443;53.164;5.802;2023-02-21T05:54:35;101950.56;;;6.79;100.00
52535;BME280;38443;53.164;5.802;2023-02-21T05:57:01;101948.78;;;6.80;100.00
52535;BME280;38443;53.164;5.802;2023-02-21T05:59:26;101950.53;;;6.81;100.00
52535;BME280;38443;53.164;5.802;2023-02-21T06:01:52;101951.44;;;6.80;100.00
52535;BME280;38443;53.164;5.802;2023-02-21T06:04:17;101952.31;;;6.81;100.00
52535;BME280;38443;53.164;5.802;2023-02-21T06:06:43;101947.00;;;6.81;100.00
52535;BME280;38443;53.164;5.802;2023-02-21T06:09:09;101947.88;;;6.81;100.00
52535;BME280;38443;53.164;5.802;2023-02-21T06:11:36;101954.13;;;6.82;100.00
52535;BME280;38443;53.164;5.802;2023-02-21T06:14:03;101942.56;;;6.81;100.00
52535;BME280;38443;53.164;5.802;2023-02-21T06:16:34;101937.22;;;6.81;100.00
52535;BME280;38443;53.164;5.802;2023-02-21T06:19:00;101939.91;;;6.83;100.00
52535;BME280;38443;53.164;5.802;2023-02-21T06:21:26;101946.13;;;6.82;100.00
52535;BME280;38443;53.164;5.802;2023-02-21T06:23:51;101950.56;;;6.79;100.00
52535;BME280;38443;53.164;5.802;2023-02-21T06:26:18;101929.25;;;6.81;100.00
52535;BME280;38443;53.164;5.802;2023-02-21T06:28:43;101939.91;;;6.81;100.00
52535;BME280;38443;53.164;5.802;2023-02-21T06:31:09;101944.34;;;6.81;100.00
52535;BME280;38443;53.164;5.802;2023-02-21T06:33:34;101947.00;;;6.82;100.00
52535;BME280;38443;53.164;5.802;2023-02-21T06:36:10;101940.81;;;6.82;100.00
52535;BME280;38443;53.164;5.802;2023-02-21T06:38:36;101941.69;;;6.82;100.00
52535;BME280;38443;53.164;5.802;2023-02-21T06:41:08;101948.78;;;6.82;100.00
52535;BME280;38443;53.164;5.802;2023-02-21T06:43:34;101952.34;;;6.82;100.00
52535;BME280;38443;53.164;5.802;2023-02-21T06:46:02;101954.97;;;6.81;100.00
52535;BME280;38443;53.164;5.802;2023-02-21T06:48:28;101962.97;;;6.81;100.00
52535;BME280;38443;53.164;5.802;2023-02-21T06:50:54;101963.88;;;6.79;100.00
52535;BME280;38443;53.164;5.802;2023-02-21T06:53:19;101952.31;;;6.79;100.00
52535;BME280;38443;53.164;5.802;2023-02-21T06:55:44;101960.28;;;6.77;100.00
52535;BME280;38443;53.164;5.802;2023-02-21T06:58:10;101964.72;;;6.78;100.00
52535;BME280;38443;53.164;5.802;2023-02-21T07:00:35;101965.59;;;6.77;100.00
52535;BME280;38443;53.164;5.802;2023-02-21T07:03:00;101967.38;;;6.78;100.00
52535;BME280;38443;53.164;5.802;2023-02-21T07:05:26;101969.16;;;6.78;100.00
52535;BME280;38443;53.164;5.802;2023-02-21T07:07:51;101966.50;;;6.78;100.00
52535;BME280;38443;53.164;5.802;2023-02-21T07:10:16;101976.25;;;6.79;100.00
52535;BME280;38443;53.164;5.802;2023-02-21T07:12:42;101973.59;;;6.81;100.00
52535;BME280;38443;53.164;5.802;2023-02-21T07:15:07;101966.50;;;6.81;100.00
52535;BME280;38443;53.164;5.802;2023-02-21T07:17:32;101964.75;;;6.82;100.00
52535;BME280;38443;53.164;5.802;2023-02-21T07:19:58;101971.84;;;6.84;100.00
52535;BME280;38443;53.164;5.802;2023-02-21T07:22:23;101969.19;;;6.84;100.00
52535;BME280;38443;53.164;5.802;2023-02-21T07:24:51;101969.22;;;6.86;100.00
52535;BME280;38443;53.164;5.802;2023-02-21T07:27:17;101963.88;;;6.87;100.00
52535;BME280;38443;53.164;5.802;2023-02-21T07:29:44;101971.88;;;6.89;100.00
52535;BME280;38443;53.164;5.802;2023-02-21T07:32:10;101971.00;;;6.90;100.00
52535;BME280;38443;53.164;5.802;2023-02-21T07:34:35;101968.31;;;6.91;100.00
52535;BME280;38443;53.164;5.802;2023-02-21T07:37:00;101966.56;;;6.92;100.00
52535;BME280;38443;53.164;5.802;2023-02-21T07:39:26;101968.31;;;6.93;100.00
52535;BME280;38443;53.164;5.802;2023-02-21T07:41:51;101960.34;;;6.93;100.00
52535;BME280;38443;53.164;5.802;2023-02-21T07:44:17;101971.00;;;6.94;100.00
52535;BME280;38443;53.164;5.802;2023-02-21T07:46:42;101968.34;;;6.94;100.00
52535;BME280;38443;53.164;5.802;2023-02-21T07:49:10;101974.56;;;6.96;100.00
52535;BME280;38443;53.164;5.802;2023-02-21T07:51:35;101974.56;;;6.98;100.00
52535;BME280;38443;53.164;5.802;2023-02-21T07:54:01;101968.38;;;7.02;100.00
52535;BME280;38443;53.164;5.802;2023-02-21T07:56:26;101976.38;;;7.04;100.00
52535;BME280;38443;53.164;5.802;2023-02-21T07:58:52;101974.59;;;7.07;100.00
52535;BME280;38443;53.164;5.802;2023-02-21T08:01:20;101970.16;;;7.06;100.00
52535;BME280;38443;53.164;5.802;2023-02-21T08:03:46;101971.97;;;7.12;100.00
52535;BME280;38443;53.164;5.802;2023-02-21T08:06:11;101977.25;;;7.13;100.00
52535;BME280;38443;53.164;5.802;2023-02-21T08:08:36;101979.06;;;7.19;100.00
52535;BME280;38443;53.164;5.802;2023-02-21T08:11:02;101974.66;;;7.18;100.00
52535;BME280;38443;53.164;5.802;2023-02-21T08:13:27;101972.00;;;7.24;100.00
52535;BME280;38443;53.164;5.802;2023-02-21T08:15:52;101969.34;;;7.26;100.00
52535;BME280;38443;53.164;5.802;2023-02-21T08:18:20;101970.25;;;7.32;100.00
52535;BME280;38443;53.164;5.802;2023-02-21T08:20:49;101973.78;;;7.39;100.00
52535;BME280;38443;53.164;5.802;2023-02-21T08:23:16;101971.13;;;7.45;100.00
52535;BME280;38443;53.164;5.802;2023-02-21T08:25:43;101976.47;;;7.48;100.00
52535;BME280;38443;53.164;5.802;2023-02-21T08:28:09;101975.59;;;7.51;100.00
52535;BME280;38443;53.164;5.802;2023-02-21T08:30:34;101975.59;;;7.52;100.00
52535;BME280;38443;53.164;5.802;2023-02-21T08:32:59;101976.50;;;7.59;100.00
52535;BME280;38443;53.164;5.802;2023-02-21T08:35:25;101971.19;;;7.62;100.00
52535;BME280;38443;53.164;5.802;2023-02-21T08:37:50;101973.84;;;7.68;100.00
52535;BME280;38443;53.164;5.802;2023-02-21T08:40:19;101967.63;;;7.72;100.00
52535;BME280;38443;53.164;5.802;2023-02-21T08:42:51;101964.97;;;7.71;100.00
52535;BME280;38443;53.164;5.802;2023-02-21T08:45:18;101973.84;;;7.70;100.00
52535;BME280;38443;53.164;5.802;2023-02-21T08:47:44;101973.84;;;7.68;100.00
52535;BME280;38443;53.164;5.802;2023-02-21T08:50:10;101972.06;;;7.63;100.00
52535;BME280;38443;53.164;5.802;2023-02-21T08:52:35;101977.38;;;7.69;100.00
52535;BME280;38443;53.164;5.802;2023-02-21T08:55:01;101974.72;;;7.67;100.00
52535;BME280;38443;53.164;5.802;2023-02-21T08:57:26;101980.06;;;7.76;100.00
52535;BME280;38443;53.164;5.802;2023-02-21T08:59:51;101976.50;;;7.81;100.00
52535;BME280;38443;53.164;5.802;2023-02-21T09:02:19;101972.06;;;7.87;100.00
52535;BME280;38443;53.164;5.802;2023-02-21T09:04:46;101969.41;;;7.93;100.00
52535;BME280;38443;53.164;5.802;2023-02-21T09:07:15;101962.28;;;7.98;100.00
52535;BME280;38443;53.164;5.802;2023-02-21T09:09:41;101975.63;;;8.05;100.00
52535;BME280;38443;53.164;5.802;2023-02-21T09:12:06;101978.28;;;7.97;100.00
52535;BME280;38443;53.164;5.802;2023-02-21T09:14:36;101972.06;;;7.99;100.00
52535;BME280;38443;53.164;5.802;2023-02-21T09:17:03;101973.84;;;8.02;100.00
52535;BME280;38443;53.164;5.802;2023-02-21T09:19:29;101980.09;;;7.98;100.00
52535;BME280;38443;53.164;5.802;2023-02-21T09:21:54;101976.53;;;7.94;100.00
52535;BME280;38443;53.164;5.802;2023-02-21T09:24:20;101978.28;;;7.98;100.00
52535;BME280;38443;53.164;5.802;2023-02-21T09:26:50;101969.41;;;8.04;100.00
52535;BME280;38443;53.164;5.802;2023-02-21T09:29:19;101967.63;;;8.09;100.00
52535;BME280;38443;53.164;5.802;2023-02-21T09:31:44;101973.84;;;8.10;100.00
52535;BME280;38443;53.164;5.802;2023-02-21T09:34:10;101975.63;;;8.11;100.00
52535;BME280;38443;53.164;5.802;2023-02-21T09:36:35;101973.84;;;8.21;100.00
52535;BME280;38443;53.164;5.802;2023-02-21T09:39:00;101965.81;;;8.24;100.00
52535;BME280;38443;53.164;5.802;2023-02-21T09:41:31;101964.03;;;8.29;100.00
52535;BME280;38443;53.164;5.802;2023-02-21T09:43:57;101972.94;;;8.34;100.00
52535;BME280;38443;53.164;5.802;2023-02-21T09:46:31;101960.47;;;8.30;100.00
52535;BME280;38443;53.164;5.802;2023-02-21T09:49:00;101964.91;;;8.37;100.00
52535;BME280;38443;53.164;5.802;2023-02-21T09:51:27;101973.78;;;8.37;100.00
52535;BME280;38443;53.164;5.802;2023-02-21T09:53:53;101960.44;;;8.37;100.00
52535;BME280;38443;53.164;5.802;2023-02-21T09:56:32;101952.47;;;8.47;100.00
52535;BME280;38443;53.164;5.802;2023-02-21T09:58:59;101959.56;;;8.51;100.00
52535;BME280;38443;53.164;5.802;2023-02-21T10:01:28;101945.34;;;8.47;100.00
52535;BME280;38443;53.164;5.802;2023-02-21T10:04:08;101956.88;;;8.58;100.00
52535;BME280;38443;53.164;5.802;2023-02-21T10:06:59;101951.56;;;8.58;100.00
52535;BME280;38443;53.164;5.802;2023-02-21T10:10:00;101950.66;;;8.63;100.00
52535;BME280;38443;53.164;5.802;2023-02-21T10:12:35;101953.28;;;8.66;100.00
52535;BME280;38443;53.164;5.802;2023-02-21T10:18:03;101952.31;;;8.84;100.00
52535;BME280;38443;53.164;5.802;2023-02-21T10:20:47;101953.22;;;8.89;100.00
52535;BME280;38443;53.164;5.802;2023-02-21T10:23:37;101946.94;;;8.97;100.00
52535;BME280;38443;53.164;5.802;2023-02-21T10:26:10;101948.69;;;9.02;100.00
52535;BME280;38443;53.164;5.802;2023-02-21T10:28:36;101953.13;;;9.09;100.00
52535;BME280;38443;53.164;5.802;2023-02-21T10:31:07;101961.97;;;9.14;100.00
52535;BME280;38443;53.164;5.802;2023-02-21T10:33:36;101962.88;;;9.14;100.00
52535;BME280;38443;53.164;5.802;2023-02-21T10:36:12;101960.22;;;9.13;100.00
52535;BME280;38443;53.164;5.802;2023-02-21T10:38:40;101969.09;;;9.15;100.00
52535;BME280;38443;53.164;5.802;2023-02-21T10:41:07;101964.66;;;9.18;100.00
52535;BME280;38443;53.164;5.802;2023-02-21T10:43:57;101961.06;;;9.23;100.00
52535;BME280;38443;53.164;5.802;2023-02-21T10:46:41;101961.06;;;9.24;100.00
52535;BME280;38443;53.164;5.802;2023-02-21T10:52:13;101967.16;;;9.43;100.00
52535;BME280;38443;53.164;5.802;2023-02-21T10:54:41;101968.88;;;9.53;100.00
52535;BME280;38443;53.164;5.802;2023-02-21T10:57:07;101960.84;;;9.52;100.00
52535;BME280;38443;53.164;5.802;2023-02-21T10:59:37;101965.28;;;9.59;100.00
52535;BME280;38443;53.164;5.802;2023-02-21T11:04:50;101953.66;;;9.62;100.00
52535;BME280;38443;53.164;5.802;2023-02-21T11:07:17;101954.53;;;9.65;100.00
52535;BME280;38443;53.164;5.802;2023-02-21T11:09:43;101960.81;;;9.59;100.00
52535;BME280;38443;53.164;5.802;2023-02-21T11:15:05;101959.03;;;9.58;100.00
52535;BME280;38443;53.164;5.802;2023-02-21T11:17:32;101967.03;;;9.63;100.00
52535;BME280;38443;53.164;5.802;2023-02-21T11:24:59;101955.44;;;9.64;100.00
52535;BME280;38443;53.164;5.802;2023-02-21T11:27:27;101957.19;;;9.68;100.00
52535;BME280;38443;53.164;5.802;2023-02-21T11:29:54;101952.69;;;9.72;100.00
52535;BME280;38443;53.164;5.802;2023-02-21T11:32:25;101958.94;;;9.69;100.00
52535;BME280;38443;53.164;5.802;2023-02-21T11:34:59;101961.66;;;9.66;100.00
52535;BME280;38443;53.164;5.802;2023-02-21T11:37:26;101967.00;;;9.66;100.00
52535;BME280;38443;53.164;5.802;2023-02-21T11:39:53;101961.66;;;9.66;100.00
52535;BME280;38443;53.164;5.802;2023-02-21T11:42:26;101966.16;;;9.61;100.00
52535;BME280;38443;53.164;5.802;2023-02-21T11:45:09;101967.94;;;9.59;100.00
52535;BME280;38443;53.164;5.802;2023-02-21T11:47:51;101963.47;;;9.58;100.00
52535;BME280;38443;53.164;5.802;2023-02-21T11:50:28;101973.34;;;9.54;100.00
52535;BME280;38443;53.164;5.802;2023-02-21T11:53:08;101963.56;;;9.49;100.00
52535;BME280;38443;53.164;5.802;2023-02-21T11:55:41;101960.94;;;9.41;100.00
52535;BME280;38443;53.164;5.802;2023-02-21T11:58:28;101954.72;;;9.39;100.00
52535;BME280;38443;53.164;5.802;2023-02-21T12:01:04;101950.25;;;9.38;100.00
52535;BME280;38443;53.164;5.802;2023-02-21T12:09:19;101958.31;;;9.33;100.00
52535;BME280;38443;53.164;5.802;2023-02-21T12:12:10;101959.19;;;9.34;100.00
52535;BME280;38443;53.164;5.802;2023-02-21T12:14:51;101956.50;;;9.37;100.00
52535;BME280;38443;53.164;5.802;2023-02-21T12:25:22;101942.31;;;9.29;100.00
52535;BME280;38443;53.164;5.802;2023-02-21T12:44:10;101938.81;;;9.22;100.00
52535;BME280;38443;53.164;5.802;2023-02-21T12:46:41;101929.00;;;9.19;100.00
52535;BME280;38443;53.164;5.802;2023-02-21T12:49:22;101928.13;;;9.19;100.00
52535;BME280;38443;53.164;5.802;2023-02-21T12:51:58;101926.31;;;9.23;100.00
52535;BME280;38443;53.164;5.802;2023-02-21T12:54:41;101920.13;;;9.17;100.00
52535;BME280;38443;53.164;5.802;2023-02-21T12:57:13;101921.00;;;9.18;100.00
52535;BME280;38443;53.164;5.802;2023-02-21T13:02:42;101915.69;;;9.15;100.00
52535;BME280;38443;53.164;5.802;2023-02-21T13:05:24;101917.47;;;9.13;100.00
52535;BME280;38443;53.164;5.802;2023-02-21T13:08:02;101915.69;;;9.15;100.00
52535;BME280;38443;53.164;5.802;2023-02-21T13:10:50;101907.66;;;9.15;100.00
52535;BME280;38443;53.164;5.802;2023-02-21T13:13:30;101912.09;;;9.19;100.00
52535;BME280;38443;53.164;5.802;2023-02-21T13:15:57;101907.63;;;9.19;100.00
52535;BME280;38443;53.164;5.802;2023-02-21T13:18:29;101915.69;;;9.16;100.00
52535;BME280;38443;53.164;5.802;2023-02-21T13:23:54;101912.13;;;9.11;100.00
52535;BME280;38443;53.164;5.802;2023-02-21T13:26:39;101903.25;;;9.11;100.00
52535;BME280;38443;53.164;5.802;2023-02-21T13:29:17;101908.59;;;9.08;100.00
52535;BME280;38443;53.164;5.802;2023-02-21T13:31:43;101901.50;;;9.08;100.00
52535;BME280;38443;53.164;5.802;2023-02-21T13:34:12;101903.28;;;9.02;100.00
52535;BME280;38443;53.164;5.802;2023-02-21T13:36:44;101896.16;;;9.04;100.00
52535;BME280;38443;53.164;5.802;2023-02-21T13:39:21;101899.75;;;9.03;100.00
52535;BME280;38443;53.164;5.802;2023-02-21T13:42:04;101900.66;;;8.97;100.00
52535;BME280;38443;53.164;5.802;2023-02-21T13:44:37;101901.56;;;8.94;100.00
52535;BME280;38443;53.164;5.802;2023-02-21T13:47:21;101910.50;;;8.87;100.00
52535;BME280;38443;53.164;5.802;2023-02-21T13:49:57;101906.94;;;8.85;100.00
52535;BME280;38443;53.164;5.802;2023-02-21T13:52:34;101902.50;;;8.81;100.00
52535;BME280;38443;53.164;5.802;2023-02-21T14:08:07;101895.50;;;8.60;100.00
52535;BME280;38443;53.164;5.802;2023-02-21T14:10:48;101894.59;;;8.64;100.00
52535;BME280;38443;53.164;5.802;2023-02-21T14:13:21;101895.47;;;8.62;100.00
52535;BME280;38443;53.164;5.802;2023-02-21T14:18:57;101897.28;;;8.56;100.00
52535;BME280;38443;53.164;5.802;2023-02-21T14:21:47;101906.22;;;8.54;100.00
52535;BME280;38443;53.164;5.802;2023-02-21T14:24:29;101893.75;;;8.50;100.00
52535;BME280;38443;53.164;5.802;2023-02-21T14:27:01;101891.06;;;8.50;100.00
52535;BME280;38443;53.164;5.802;2023-02-21T14:32:35;101887.56;;;8.43;100.00
52535;BME280;38443;53.164;5.802;2023-02-21T14:37:18;101889.34;;;8.44;100.00
52535;BME280;38443;53.164;5.802;2023-02-21T14:56:07;101878.66;;;8.43;100.00
52535;BME280;38443;53.164;5.802;2023-02-21T15:05:04;101868.00;;;8.36;100.00
52535;BME280;38443;53.164;5.802;2023-02-21T15:10:16;101882.22;;;8.32;100.00
52535;BME280;38443;53.164;5.802;2023-02-21T15:12:51;101878.69;;;8.30;100.00
52535;BME280;38443;53.164;5.802;2023-02-21T15:15:38;101878.69;;;8.32;100.00
52535;BME280;38443;53.164;5.802;2023-02-21T15:18:10;101880.47;;;8.28;100.00
52535;BME280;38443;53.164;5.802;2023-02-21T15:20:38;101885.81;;;8.28;100.00
52535;BME280;38443;53.164;5.802;2023-02-21T15:23:19;101876.88;;;8.28;100.00
52535;BME280;38443;53.164;5.802;2023-02-21T15:25:54;101876.91;;;8.26;100.00